sensor_id;sensor_type;location;lat;lon;timestamp;temperature;humidity
4910;DHT22;2470;49.868;8.660;2022-11-20T00:01:40;5.60;99.90
4910;DHT22;2470;49.868;8.660;2022-11-20T00:04:08;5.50;99.90
4910;DHT22;2470;49.868;8.660;2022-11-20T00:06:33;5.50;99.90
4910;DHT22;2470;49.868;8.660;2022-11-20T00:08:59;5.50;99.90
4910;DHT22;2470;49.868;8.660;2022-11-20T00:11:28;5.50;99.90
4910;DHT22;2470;49.868;8.660;2022-11-20T00:13:55;5.40;99.90
4910;DHT22;2470;49.868;8.660;2022-11-20T00:16:24;5.40;99.90
4910;DHT22;2470;49.868;8.660;2022-11-20T00:18:50;5.40;99.90
4910;DHT22;2470;49.868;8.660;2022-11-20T00:21:21;5.40;99.90
4910;DHT22;2470;49.868;8.660;2022-11-20T00:23:47;5.50;99.90
4910;DHT22;2470;49.868;8.660;2022-11-20T00:26:15;5.50;99.90
4910;DHT22;2470;49.868;8.660;2022-11-20T00:28:42;5.50;99.90
4910;DHT22;2470;49.868;8.660;2022-11-20T00:31:14;5.50;99.90
4910;DHT22;2470;49.868;8.660;2022-11-20T00:33:40;5.50;99.90
4910;DHT22;2470;49.868;8.660;2022-11-20T00:36:08;5.50;99.90
4910;DHT22;2470;49.868;8.660;2022-11-20T00:38:35;5.50;99.90
4910;DHT22;2470;49.868;8.660;2022-11-20T00:41:04;5.40;99.90
4910;DHT22;2470;49.868;8.660;2022-11-20T00:43:29;5.40;99.90
4910;DHT22;2470;49.868;8.660;2022-11-20T00:45:59;5.40;99.90
4910;DHT22;2470;49.868;8.660;2022-11-20T00:48:26;5.40;99.90
4910;DHT22;2470;49.868;8.660;2022-11-20T00:50:52;5.40;99.90
4910;DHT22;2470;49.868;8.660;2022-11-20T00:53:17;5.40;99.90
4910;DHT22;2470;49.868;8.660;2022-11-20T00:55:43;5.40;99.90
4910;DHT22;2470;49.868;8.660;2022-11-20T00:58:17;5.40;99.90
4910;DHT22;2470;49.868;8.660;2022-11-20T01:00:42;5.40;99.90
4910;DHT22;2470;49.868;8.660;2022-11-20T01:03:08;5.40;99.90
4910;DHT22;2470;49.868;8.660;2022-11-20T01:05:34;5.40;99.90
4910;DHT22;2470;49.868;8.660;2022-11-20T01:08:00;5.50;99.90
4910;DHT22;2470;49.868;8.660;2022-11-20T01:10:26;5.50;99.90
4910;DHT22;2470;49.868;8.660;2022-11-20T01:12:51;5.50;99.90
4910;DHT22;2470;49.868;8.660;2022-11-20T01:15:37;5.50;99.90
4910;DHT22;2470;49.868;8.660;2022-11-20T01:18:02;5.50;99.90
4910;DHT22;2470;49.868;8.660;2022-11-20T01:20:28;5.50;99.90
4910;DHT22;2470;49.868;8.660;2022-11-20T01:22:53;5.40;99.90
4910;DHT22;2470;49.868;8.660;2022-11-20T01:25:19;5.50;99.90
4910;DHT22;2470;49.868;8.660;2022-11-20T01:27:44;5.40;99.90
4910;DHT22;2470;49.868;8.660;2022-11-20T01:30:10;5.50;99.90
4910;DHT22;2470;49.868;8.660;2022-11-20T01:32:36;5.50;99.90
4910;DHT22;2470;49.868;8.660;2022-11-20T01:35:01;5.50;99.90
4910;DHT22;2470;49.868;8.660;2022-11-20T01:37:27;5.50;99.90
4910;DHT22;2470;49.868;8.660;2022-11-20T01:39:52;5.50;99.90
4910;DHT22;2470;49.868;8.660;2022-11-20T01:42:18;5.50;99.90
4910;DHT22;2470;49.868;8.660;2022-11-20T01:45:42;5.50;99.90
4910;DHT22;2470;49.868;8.660;2022-11-20T01:47:47;5.50;99.90
4910;DHT22;2470;49.868;8.660;2022-11-20T01:50:24;5.40;99.90
4910;DHT22;2470;49.868;8.660;2022-11-20T01:52:55;5.40;99.90
4910;DHT22;2470;49.868;8.660;2022-11-20T01:55:26;5.40;99.90
4910;DHT22;2470;49.868;8.660;2022-11-20T01:57:52;5.50;99.90
4910;DHT22;2470;49.868;8.660;2022-11-20T02:00:19;5.50;99.90
4910;DHT22;2470;49.868;8.660;2022-11-20T02:02:50;5.50;99.90
4910;DHT22;2470;49.868;8.660;2022-11-20T02:05:28;5.60;99.90
4910;DHT22;2470;49.868;8.660;2022-11-20T02:07:57;5.50;99.90
4910;DHT22;2470;49.868;8.660;2022-11-20T02:10:24;5.50;99.90
4910;DHT22;2470;49.868;8.660;2022-11-20T02:12:51;5.50;99.90
4910;DHT22;2470;49.868;8.660;2022-11-20T02:15:35;5.50;99.90
4910;DHT22;2470;49.868;8.660;2022-11-20T02:18:00;5.40;99.90
4910;DHT22;2470;49.868;8.660;2022-11-20T02:20:26;5.40;99.90
4910;DHT22;2470;49.868;8.660;2022-11-20T02:22:59;5.30;99.90
4910;DHT22;2470;49.868;8.660;2022-11-20T02:25:28;5.30;99.90
4910;DHT22;2470;49.868;8.660;2022-11-20T02:27:54;5.30;99.90
4910;DHT22;2470;49.868;8.660;2022-11-20T02:30:19;5.30;99.90
4910;DHT22;2470;49.868;8.660;2022-11-20T02:32:45;5.30;99.90
4910;DHT22;2470;49.868;8.660;2022-11-20T02:37:48;5.20;99.90
4910;DHT22;2470;49.868;8.660;2022-11-20T02:40:15;5.10;99.90
4910;DHT22;2470;49.868;8.660;2022-11-20T02:42:40;5.00;99.90
4910;DHT22;2470;49.868;8.660;2022-11-20T02:45:06;5.00;99.90
4910;DHT22;2470;49.868;8.660;2022-11-20T02:47:32;5.00;99.90
4910;DHT22;2470;49.868;8.660;2022-11-20T02:49:58;5.10;99.90
4910;DHT22;2470;49.868;8.660;2022-11-20T02:52:24;5.10;99.90
4910;DHT22;2470;49.868;8.660;2022-11-20T02:54:50;5.00;99.90
4910;DHT22;2470;49.868;8.660;2022-11-20T02:57:16;5.00;99.90
4910;DHT22;2470;49.868;8.660;2022-11-20T02:59:41;5.00;99.90
4910;DHT22;2470;49.868;8.660;2022-11-20T03:02:07;5.00;99.90
4910;DHT22;2470;49.868;8.660;2022-11-20T03:04:32;5.00;99.90
4910;DHT22;2470;49.868;8.660;2022-11-20T03:06:58;5.00;99.90
4910;DHT22;2470;49.868;8.660;2022-11-20T03:09:23;4.90;99.90
4910;DHT22;2470;49.868;8.660;2022-11-20T03:11:49;4.90;99.90
4910;DHT22;2470;49.868;8.660;2022-11-20T03:14:14;4.90;99.90
4910;DHT22;2470;49.868;8.660;2022-11-20T03:16:40;4.90;99.90
4910;DHT22;2470;49.868;8.660;2022-11-20T03:19:05;4.90;99.90
4910;DHT22;2470;49.868;8.660;2022-11-20T03:21:33;4.80;99.90
4910;DHT22;2470;49.868;8.660;2022-11-20T03:23:59;4.80;99.90
4910;DHT22;2470;49.868;8.660;2022-11-20T03:26:25;4.70;99.90
4910;DHT22;2470;49.868;8.660;2022-11-20T03:28:58;4.70;99.90
4910;DHT22;2470;49.868;8.660;2022-11-20T03:31:29;4.70;99.90
4910;DHT22;2470;49.868;8.660;2022-11-20T03:33:56;4.60;99.90
4910;DHT22;2470;49.868;8.660;2022-11-20T03:36:23;4.70;99.90
4910;DHT22;2470;49.868;8.660;2022-11-20T03:38:48;4.70;99.90
4910;DHT22;2470;49.868;8.660;2022-11-20T03:41:22;4.70;99.90
4910;DHT22;2470;49.868;8.660;2022-11-20T03:43:59;4.70;99.90
4910;DHT22;2470;49.868;8.660;2022-11-20T03:46:26;4.80;99.90
4910;DHT22;2470;49.868;8.660;2022-11-20T03:48:51;4.80;99.90
4910;DHT22;2470;49.868;8.660;2022-11-20T03:51:25;4.80;99.90
4910;DHT22;2470;49.868;8.660;2022-11-20T03:53:52;4.80;99.90
4910;DHT22;2470;49.868;8.660;2022-11-20T03:56:20;4.70;99.90
4910;DHT22;2470;49.868;8.660;2022-11-20T03:58:47;4.70;99.90
4910;DHT22;2470;49.868;8.660;2022-11-20T04:01:27;4.70;99.90
4910;DHT22;2470;49.868;8.660;2022-11-20T04:03:54;4.60;99.90
4910;DHT22;2470;49.868;8.660;2022-11-20T04:06:25;4.50;99.90
4910;DHT22;2470;49.868;8.660;2022-11-20T04:08:53;4.60;99.90
4910;DHT22;2470;49.868;8.660;2022-11-20T04:11:29;4.50;99.90
4910;DHT22;2470;49.868;8.660;2022-11-20T04:13:58;4.50;99.90
4910;DHT22;2470;49.868;8.660;2022-11-20T04:16:25;4.50;99.90
4910;DHT22;2470;49.868;8.660;2022-11-20T04:18:56;4.50;99.90
4910;DHT22;2470;49.868;8.660;2022-11-20T04:21:24;4.60;99.90
4910;DHT22;2470;49.868;8.660;2022-11-20T04:23:50;4.60;99.90
4910;DHT22;2470;49.868;8.660;2022-11-20T04:26:18;4.70;99.90
4910;DHT22;2470;49.868;8.660;2022-11-20T04:28:44;4.70;99.90
4910;DHT22;2470;49.868;8.660;2022-11-20T04:31:11;4.70;99.90
4910;DHT22;2470;49.868;8.660;2022-11-20T04:33:37;4.70;99.90
4910;DHT22;2470;49.868;8.660;2022-11-20T04:36:05;4.70;99.90
4910;DHT22;2470;49.868;8.660;2022-11-20T04:38:32;4.80;99.90
4910;DHT22;2470;49.868;8.660;2022-11-20T04:41:02;4.80;99.90
4910;DHT22;2470;49.868;8.660;2022-11-20T04:43:28;4.80;99.90
4910;DHT22;2470;49.868;8.660;2022-11-20T04:45:55;4.80;99.90
4910;DHT22;2470;49.868;8.660;2022-11-20T04:48:21;4.90;99.90
4910;DHT22;2470;49.868;8.660;2022-11-20T04:50:47;4.90;99.90
4910;DHT22;2470;49.868;8.660;2022-11-20T04:53:13;4.90;99.90
4910;DHT22;2470;49.868;8.660;2022-11-20T04:55:39;5.00;99.90
4910;DHT22;2470;49.868;8.660;2022-11-20T04:58:04;5.00;99.90
4910;DHT22;2470;49.868;8.660;2022-11-20T05:00:30;5.00;99.90
4910;DHT22;2470;49.868;8.660;2022-11-20T05:02:55;5.00;99.90
4910;DHT22;2470;49.868;8.660;2022-11-20T05:05:21;5.00;99.90
4910;DHT22;2470;49.868;8.660;2022-11-20T05:07:46;5.00;99.90
4910;DHT22;2470;49.868;8.660;2022-11-20T05:10:12;5.00;99.90
4910;DHT22;2470;49.868;8.660;2022-11-20T05:12:37;5.00;99.90
4910;DHT22;2470;49.868;8.660;2022-11-20T05:15:03;5.00;99.90
4910;DHT22;2470;49.868;8.660;2022-11-20T05:17:28;5.00;99.90
4910;DHT22;2470;49.868;8.660;2022-11-20T05:19:54;5.00;99.90
4910;DHT22;2470;49.868;8.660;2022-11-20T05:22:19;4.90;99.90
4910;DHT22;2470;49.868;8.660;2022-11-20T05:24:45;4.80;99.90
4910;DHT22;2470;49.868;8.660;2022-11-20T05:27:10;4.80;99.90
4910;DHT22;2470;49.868;8.660;2022-11-20T05:29:36;4.80;99.90
4910;DHT22;2470;49.868;8.660;2022-11-20T05:32:01;4.80;99.90
4910;DHT22;2470;49.868;8.660;2022-11-20T05:34:27;4.90;99.90
4910;DHT22;2470;49.868;8.660;2022-11-20T05:36:53;5.00;99.90
4910;DHT22;2470;49.868;8.660;2022-11-20T05:39:18;5.00;99.90
4910;DHT22;2470;49.868;8.660;2022-11-20T05:41:44;4.90;99.90
4910;DHT22;2470;49.868;8.660;2022-11-20T05:44:12;4.90;99.90
4910;DHT22;2470;49.868;8.660;2022-11-20T05:46:38;4.80;99.90
4910;DHT22;2470;49.868;8.660;2022-11-20T05:49:03;4.70;99.90
4910;DHT22;2470;49.868;8.660;2022-11-20T05:51:29;4.70;99.90
4910;DHT22;2470;49.868;8.660;2022-11-20T05:53:56;4.70;99.90
4910;DHT22;2470;49.868;8.660;2022-11-20T05:56:22;4.70;99.90
4910;DHT22;2470;49.868;8.660;2022-11-20T05:58:48;4.70;99.90
4910;DHT22;2470;49.868;8.660;2022-11-20T06:01:21;4.70;99.90
4910;DHT22;2470;49.868;8.660;2022-11-20T06:03:47;4.70;99.90
4910;DHT22;2470;49.868;8.660;2022-11-20T06:06:17;4.70;99.90
4910;DHT22;2470;49.868;8.660;2022-11-20T06:08:43;4.70;99.90
4910;DHT22;2470;49.868;8.660;2022-11-20T06:11:10;4.70;99.90
4910;DHT22;2470;49.868;8.660;2022-11-20T06:13:37;4.70;99.90
4910;DHT22;2470;49.868;8.660;2022-11-20T06:16:02;4.80;99.90
4910;DHT22;2470;49.868;8.660;2022-11-20T06:18:28;4.80;99.90
4910;DHT22;2470;49.868;8.660;2022-11-20T06:21:02;4.80;99.90
4910;DHT22;2470;49.868;8.660;2022-11-20T06:23:29;4.90;99.90
4910;DHT22;2470;49.868;8.660;2022-11-20T06:25:55;5.00;99.90
4910;DHT22;2470;49.868;8.660;2022-11-20T06:28:20;5.10;99.90
4910;DHT22;2470;49.868;8.660;2022-11-20T06:30:47;5.10;99.90
4910;DHT22;2470;49.868;8.660;2022-11-20T06:33:12;5.00;99.90
4910;DHT22;2470;49.868;8.660;2022-11-20T06:35:38;5.00;99.90
4910;DHT22;2470;49.868;8.660;2022-11-20T06:38:03;5.00;99.90
4910;DHT22;2470;49.868;8.660;2022-11-20T06:40:29;4.90;99.90
4910;DHT22;2470;49.868;8.660;2022-11-20T06:42:54;4.70;99.90
4910;DHT22;2470;49.868;8.660;2022-11-20T06:45:21;4.70;99.90
4910;DHT22;2470;49.868;8.660;2022-11-20T06:47:46;4.60;99.90
4910;DHT22;2470;49.868;8.660;2022-11-20T06:50:12;4.60;99.90
4910;DHT22;2470;49.868;8.660;2022-11-20T06:52:38;4.60;99.90
4910;DHT22;2470;49.868;8.660;2022-11-20T06:55:04;4.70;99.90
4910;DHT22;2470;49.868;8.660;2022-11-20T06:57:30;4.80;99.90
4910;DHT22;2470;49.868;8.660;2022-11-20T06:59:55;4.90;99.90
4910;DHT22;2470;49.868;8.660;2022-11-20T07:02:20;5.00;99.90
4910;DHT22;2470;49.868;8.660;2022-11-20T07:04:46;5.10;99.90
4910;DHT22;2470;49.868;8.660;2022-11-20T07:07:11;5.20;99.90
4910;DHT22;2470;49.868;8.660;2022-11-20T07:09:37;5.20;99.90
4910;DHT22;2470;49.868;8.660;2022-11-20T07:12:03;5.30;99.90
4910;DHT22;2470;49.868;8.660;2022-11-20T07:14:28;5.30;99.90
4910;DHT22;2470;49.868;8.660;2022-11-20T07:16:54;5.30;99.90
4910;DHT22;2470;49.868;8.660;2022-11-20T07:19:19;5.30;99.90
4910;DHT22;2470;49.868;8.660;2022-11-20T07:21:45;5.40;99.90
4910;DHT22;2470;49.868;8.660;2022-11-20T07:24:10;5.40;99.90
4910;DHT22;2470;49.868;8.660;2022-11-20T07:26:36;5.50;99.90
4910;DHT22;2470;49.868;8.660;2022-11-20T07:29:01;5.50;99.90
4910;DHT22;2470;49.868;8.660;2022-11-20T07:31:27;5.60;99.90
4910;DHT22;2470;49.868;8.660;2022-11-20T07:33:52;5.60;99.90
4910;DHT22;2470;49.868;8.660;2022-11-20T07:36:18;5.70;99.90
4910;DHT22;2470;49.868;8.660;2022-11-20T07:38:43;5.80;99.90
4910;DHT22;2470;49.868;8.660;2022-11-20T07:41:09;6.00;99.90
4910;DHT22;2470;49.868;8.660;2022-11-20T07:43:34;5.90;99.90
4910;DHT22;2470;49.868;8.660;2022-11-20T07:46:00;5.90;99.90
4910;DHT22;2470;49.868;8.660;2022-11-20T07:48:25;5.80;99.90
4910;DHT22;2470;49.868;8.660;2022-11-20T07:50:57;5.80;99.90
4910;DHT22;2470;49.868;8.660;2022-11-20T07:53:23;5.70;99.90
4910;DHT22;2470;49.868;8.660;2022-11-20T07:55:49;5.70;99.90
4910;DHT22;2470;49.868;8.660;2022-11-20T07:58:18;5.70;99.90
4910;DHT22;2470;49.868;8.660;2022-11-20T08:00:44;5.70;99.90
4910;DHT22;2470;49.868;8.660;2022-11-20T08:03:09;5.70;99.90
4910;DHT22;2470;49.868;8.660;2022-11-20T08:05:35;5.80;99.90
4910;DHT22;2470;49.868;8.660;2022-11-20T08:08:00;5.80;99.90
4910;DHT22;2470;49.868;8.660;2022-11-20T08:10:26;5.80;99.90
4910;DHT22;2470;49.868;8.660;2022-11-20T08:12:52;5.80;99.90
4910;DHT22;2470;49.868;8.660;2022-11-20T08:15:38;5.80;99.90
4910;DHT22;2470;49.868;8.660;2022-11-20T08:18:06;5.80;99.90
4910;DHT22;2470;49.868;8.660;2022-11-20T08:20:32;5.80;99.90
4910;DHT22;2470;49.868;8.660;2022-11-20T08:23:04;5.80;99.90
4910;DHT22;2470;49.868;8.660;2022-11-20T08:25:31;5.80;99.90
4910;DHT22;2470;49.868;8.660;2022-11-20T08:27:58;5.80;99.90
4910;DHT22;2470;49.868;8.660;2022-11-20T08:30:24;5.80;99.90
4910;DHT22;2470;49.868;8.660;2022-11-20T08:32:50;5.80;99.90
4910;DHT22;2470;49.868;8.660;2022-11-20T08:35:15;5.80;99.90
4910;DHT22;2470;49.868;8.660;2022-11-20T08:37:41;5.90;99.90
4910;DHT22;2470;49.868;8.660;2022-11-20T08:40:09;6.00;99.90
4910;DHT22;2470;49.868;8.660;2022-11-20T08:42:35;6.00;99.90
4910;DHT22;2470;49.868;8.660;2022-11-20T08:45:00;6.10;99.90
4910;DHT22;2470;49.868;8.660;2022-11-20T08:47:26;6.10;99.90
4910;DHT22;2470;49.868;8.660;2022-11-20T08:49:51;6.20;99.90
4910;DHT22;2470;49.868;8.660;2022-11-20T08:52:17;6.30;99.90
4910;DHT22;2470;49.868;8.660;2022-11-20T08:54:43;6.60;99.90
4910;DHT22;2470;49.868;8.660;2022-11-20T08:57:08;6.60;99.90
4910;DHT22;2470;49.868;8.660;2022-11-20T08:59:33;6.70;99.90
4910;DHT22;2470;49.868;8.660;2022-11-20T09:01:59;6.80;99.90
4910;DHT22;2470;49.868;8.660;2022-11-20T09:04:24;6.80;99.90
4910;DHT22;2470;49.868;8.660;2022-11-20T09:06:50;6.90;99.90
4910;DHT22;2470;49.868;8.660;2022-11-20T09:09:17;7.10;99.90
4910;DHT22;2470;49.868;8.660;2022-11-20T09:11:44;7.10;99.90
4910;DHT22;2470;49.868;8.660;2022-11-20T09:14:09;7.10;99.90
4910;DHT22;2470;49.868;8.660;2022-11-20T09:16:35;7.00;99.90
4910;DHT22;2470;49.868;8.660;2022-11-20T09:19:00;6.80;99.90
4910;DHT22;2470;49.868;8.660;2022-11-20T09:21:26;6.60;99.90
4910;DHT22;2470;49.868;8.660;2022-11-20T09:23:52;6.50;99.90
4910;DHT22;2470;49.868;8.660;2022-11-20T09:26:17;6.40;99.90
4910;DHT22;2470;49.868;8.660;2022-11-20T09:28:43;6.30;99.90
4910;DHT22;2470;49.868;8.660;2022-11-20T09:31:14;6.30;99.90
4910;DHT22;2470;49.868;8.660;2022-11-20T09:33:42;6.20;99.90
4910;DHT22;2470;49.868;8.660;2022-11-20T09:36:08;6.10;99.90
4910;DHT22;2470;49.868;8.660;2022-11-20T09:38:34;6.10;99.90
4910;DHT22;2470;49.868;8.660;2022-11-20T09:41:06;6.10;99.90
4910;DHT22;2470;49.868;8.660;2022-11-20T09:43:58;6.00;99.90
4910;DHT22;2470;49.868;8.660;2022-11-20T09:46:41;6.00;99.90
4910;DHT22;2470;49.868;8.660;2022-11-20T09:52:46;6.00;99.90
4910;DHT22;2470;49.868;8.660;2022-11-20T09:54:45;6.00;99.90
4910;DHT22;2470;49.868;8.660;2022-11-20T09:57:13;6.10;99.90
4910;DHT22;2470;49.868;8.660;2022-11-20T09:59:42;6.10;99.90
4910;DHT22;2470;49.868;8.660;2022-11-20T10:02:25;6.00;99.90
4910;DHT22;2470;49.868;8.660;2022-11-20T10:05:15;6.00;99.90
4910;DHT22;2470;49.868;8.660;2022-11-20T10:08:16;6.00;99.90
4910;DHT22;2470;49.868;8.660;2022-11-20T10:24:06;6.10;99.90
4910;DHT22;2470;49.868;8.660;2022-11-20T10:26:38;6.10;99.90
4910;DHT22;2470;49.868;8.660;2022-11-20T10:29:15;6.10;99.90
4910;DHT22;2470;49.868;8.660;2022-11-20T10:31:51;6.10;99.90
4910;DHT22;2470;49.868;8.660;2022-11-20T10:34:31;6.10;99.90
4910;DHT22;2470;49.868;8.660;2022-11-20T10:37:03;6.20;99.90
4910;DHT22;2470;49.868;8.660;2022-11-20T10:39:36;6.10;99.90
4910;DHT22;2470;49.868;8.660;2022-11-20T10:42:09;6.10;99.90
4910;DHT22;2470;49.868;8.660;2022-11-20T10:44:36;6.10;99.90
4910;DHT22;2470;49.868;8.660;2022-11-20T10:47:22;6.10;99.90
4910;DHT22;2470;49.868;8.660;2022-11-20T10:49:51;6.10;99.90
4910;DHT22;2470;49.868;8.660;2022-11-20T10:55:45;6.10;99.90
4910;DHT22;2470;49.868;8.660;2022-11-20T10:58:23;6.20;99.90
4910;DHT22;2470;49.868;8.660;2022-11-20T11:01:16;6.20;99.90
4910;DHT22;2470;49.868;8.660;2022-11-20T11:03:43;6.10;99.90
4910;DHT22;2470;49.868;8.660;2022-11-20T11:09:01;6.00;99.90
4910;DHT22;2470;49.868;8.660;2022-11-20T11:11:30;6.00;99.90
4910;DHT22;2470;49.868;8.660;2022-11-20T11:14:07;6.00;99.90
4910;DHT22;2470;49.868;8.660;2022-11-20T11:16:34;6.00;99.90
4910;DHT22;2470;49.868;8.660;2022-11-20T11:19:13;6.10;99.90
4910;DHT22;2470;49.868;8.660;2022-11-20T11:21:38;6.20;99.90
4910;DHT22;2470;49.868;8.660;2022-11-20T11:24:25;6.20;99.90
4910;DHT22;2470;49.868;8.660;2022-11-20T11:26:57;6.30;99.90
4910;DHT22;2470;49.868;8.660;2022-11-20T11:29:23;6.40;99.90
4910;DHT22;2470;49.868;8.660;2022-11-20T11:32:06;6.50;99.90
4910;DHT22;2470;49.868;8.660;2022-11-20T11:34:32;6.60;99.90
4910;DHT22;2470;49.868;8.660;2022-11-20T11:36:59;6.60;99.90
4910;DHT22;2470;49.868;8.660;2022-11-20T11:39:27;6.60;99.90
4910;DHT22;2470;49.868;8.660;2022-11-20T11:41:54;6.60;99.90
4910;DHT22;2470;49.868;8.660;2022-11-20T11:44:21;6.60;99.90
4910;DHT22;2470;49.868;8.660;2022-11-20T11:47:24;6.50;99.90
4910;DHT22;2470;49.868;8.660;2022-11-20T11:50:23;6.50;99.90
4910;DHT22;2470;49.868;8.660;2022-11-20T11:53:12;6.30;99.90
4910;DHT22;2470;49.868;8.660;2022-11-20T11:55:56;6.30;99.90
4910;DHT22;2470;49.868;8.660;2022-11-20T11:58:46;6.30;99.90
4910;DHT22;2470;49.868;8.660;2022-11-20T12:01:37;6.50;99.90
4910;DHT22;2470;49.868;8.660;2022-11-20T12:04:37;6.60;99.90
4910;DHT22;2470;49.868;8.660;2022-11-20T12:07:11;6.80;99.90
4910;DHT22;2470;49.868;8.660;2022-11-20T12:09:43;6.90;99.90
4910;DHT22;2470;49.868;8.660;2022-11-20T12:12:41;6.90;99.90
4910;DHT22;2470;49.868;8.660;2022-11-20T12:15:30;6.80;99.90
4910;DHT22;2470;49.868;8.660;2022-11-20T12:18:00;6.80;99.90
4910;DHT22;2470;49.868;8.660;2022-11-20T12:20:30;6.80;99.90
4910;DHT22;2470;49.868;8.660;2022-11-20T12:25:54;6.80;99.90
4910;DHT22;2470;49.868;8.660;2022-11-20T12:31:17;6.70;99.90
4910;DHT22;2470;49.868;8.660;2022-11-20T12:34:03;6.80;99.90
4910;DHT22;2470;49.868;8.660;2022-11-20T12:39:34;6.90;99.90
4910;DHT22;2470;49.868;8.660;2022-11-20T12:45:36;7.10;99.90
4910;DHT22;2470;49.868;8.660;2022-11-20T12:48:25;7.20;99.90
4910;DHT22;2470;49.868;8.660;2022-11-20T12:51:30;7.30;99.90
4910;DHT22;2470;49.868;8.660;2022-11-20T12:57:18;7.20;99.90
4910;DHT22;2470;49.868;8.660;2022-11-20T13:07:36;7.10;99.90
4910;DHT22;2470;49.868;8.660;2022-11-20T13:10:04;7.10;99.90
4910;DHT22;2470;49.868;8.660;2022-11-20T13:12:33;7.00;99.90
4910;DHT22;2470;49.868;8.660;2022-11-20T13:18:02;7.00;99.90
4910;DHT22;2470;49.868;8.660;2022-11-20T13:20:30;7.10;99.90
4910;DHT22;2470;49.868;8.660;2022-11-20T13:22:57;7.20;99.90
4910;DHT22;2470;49.868;8.660;2022-11-20T13:25:27;7.30;99.90
4910;DHT22;2470;49.868;8.660;2022-11-20T13:27:54;7.40;99.90
4910;DHT22;2470;49.868;8.660;2022-11-20T13:30:30;7.60;99.90
4910;DHT22;2470;49.868;8.660;2022-11-20T13:33:27;7.60;99.90
4910;DHT22;2470;49.868;8.660;2022-11-20T13:38:28;7.80;99.90
4910;DHT22;2470;49.868;8.660;2022-11-20T13:40:57;7.80;99.90
4910;DHT22;2470;49.868;8.660;2022-11-20T13:43:34;7.90;99.90
4910;DHT22;2470;49.868;8.660;2022-11-20T13:46:03;7.80;99.90
4910;DHT22;2470;49.868;8.660;2022-11-20T13:48:34;7.80;99.90
4910;DHT22;2470;49.868;8.660;2022-11-20T13:56:25;7.70;99.90
4910;DHT22;2470;49.868;8.660;2022-11-20T14:01:51;7.60;99.90
4910;DHT22;2470;49.868;8.660;2022-11-20T14:04:23;7.70;99.90
4910;DHT22;2470;49.868;8.660;2022-11-20T14:06:51;7.70;99.90
4910;DHT22;2470;49.868;8.660;2022-11-20T14:09:31;7.70;99.90
4910;DHT22;2470;49.868;8.660;2022-11-20T14:11:57;7.70;99.90
4910;DHT22;2470;49.868;8.660;2022-11-20T14:14:25;7.70;99.90
4910;DHT22;2470;49.868;8.660;2022-11-20T14:16:52;7.70;99.90
4910;DHT22;2470;49.868;8.660;2022-11-20T14:21:48;7.60;99.90
4910;DHT22;2470;49.868;8.660;2022-11-20T14:24:19;7.60;99.90
4910;DHT22;2470;49.868;8.660;2022-11-20T14:26:46;7.60;99.90
4910;DHT22;2470;49.868;8.660;2022-11-20T14:29:16;7.70;99.90
4910;DHT22;2470;49.868;8.660;2022-11-20T14:31:43;7.70;99.90
4910;DHT22;2470;49.868;8.660;2022-11-20T14:34:19;7.70;99.90
4910;DHT22;2470;49.868;8.660;2022-11-20T14:36:45;7.70;99.90
4910;DHT22;2470;49.868;8.660;2022-11-20T14:39:19;7.80;99.90
4910;DHT22;2470;49.868;8.660;2022-11-20T14:41:53;7.70;99.90
4910;DHT22;2470;49.868;8.660;2022-11-20T14:44:31;7.70;99.90
4910;DHT22;2470;49.868;8.660;2022-11-20T14:46:58;7.70;99.90
4910;DHT22;2470;49.868;8.660;2022-11-20T14:49:25;7.70;99.90
4910;DHT22;2470;49.868;8.660;2022-11-20T14:52:02;7.80;99.90
4910;DHT22;2470;49.868;8.660;2022-11-20T14:54:28;7.70;99.90
4910;DHT22;2470;49.868;8.660;2022-11-20T14:56:56;7.80;99.90
4910;DHT22;2470;49.868;8.660;2022-11-20T14:59:27;7.80;99.90
4910;DHT22;2470;49.868;8.660;2022-11-20T15:02:05;7.80;99.90
4910;DHT22;2470;49.868;8.660;2022-11-20T15:04:31;7.70;99.90
4910;DHT22;2470;49.868;8.660;2022-11-20T15:06:58;7.70;99.90
4910;DHT22;2470;49.868;8.660;2022-11-20T15:09:25;7.70;99.90
4910;DHT22;2470;49.868;8.660;2022-11-20T15:12:03;7.70;99.90
4910;DHT22;2470;49.868;8.660;2022-11-20T15:14:30;7.60;99.90
4910;DHT22;2470;49.868;8.660;2022-11-20T15:16:59;7.60;99.90
4910;DHT22;2470;49.868;8.660;2022-11-20T15:19:25;7.60;99.90
4910;DHT22;2470;49.868;8.660;2022-11-20T15:21:52;7.60;99.90
4910;DHT22;2470;49.868;8.660;2022-11-20T15:24:18;7.60;99.90
4910;DHT22;2470;49.868;8.660;2022-11-20T15:26:44;7.60;99.90
4910;DHT22;2470;49.868;8.660;2022-11-20T15:29:15;7.60;99.90
4910;DHT22;2470;49.868;8.660;2022-11-20T15:31:44;7.50;99.90
4910;DHT22;2470;49.868;8.660;2022-11-20T15:34:14;7.50;99.90
4910;DHT22;2470;49.868;8.660;2022-11-20T15:36:41;7.60;99.90
4910;DHT22;2470;49.868;8.660;2022-11-20T15:39:07;7.60;99.90
4910;DHT22;2470;49.868;8.660;2022-11-20T15:41:33;7.60;99.90
4910;DHT22;2470;49.868;8.660;2022-11-20T15:43:59;7.60;99.90
4910;DHT22;2470;49.868;8.660;2022-11-20T15:46:30;7.60;99.90
4910;DHT22;2470;49.868;8.660;2022-11-20T15:49:00;7.60;99.90
4910;DHT22;2470;49.868;8.660;2022-11-20T15:51:37;7.60;99.90
4910;DHT22;2470;49.868;8.660;2022-11-20T15:54:11;7.60;99.90
4910;DHT22;2470;49.868;8.660;2022-11-20T15:56:37;7.60;99.90
4910;DHT22;2470;49.868;8.660;2022-11-20T15:59:03;7.60;99.90
4910;DHT22;2470;49.868;8.660;2022-11-20T16:01:28;7.60;99.90
4910;DHT22;2470;49.868;8.660;2022-11-20T16:03:54;7.60;99.90
4910;DHT22;2470;49.868;8.660;2022-11-20T16:06:19;7.60;99.90
4910;DHT22;2470;49.868;8.660;2022-11-20T16:08:45;7.60;99.90
4910;DHT22;2470;49.868;8.660;2022-11-20T16:11:16;7.60;99.90
4910;DHT22;2470;49.868;8.660;2022-11-20T16:13:42;7.60;99.90
4910;DHT22;2470;49.868;8.660;2022-11-20T16:16:28;7.60;99.90
4910;DHT22;2470;49.868;8.660;2022-11-20T16:18:56;7.60;99.90
4910;DHT22;2470;49.868;8.660;2022-11-20T16:21:22;7.60;99.90
4910;DHT22;2470;49.868;8.660;2022-11-20T16:24:04;7.50;99.90
4910;DHT22;2470;49.868;8.660;2022-11-20T16:26:30;7.60;99.90
4910;DHT22;2470;49.868;8.660;2022-11-20T16:28:58;7.60;99.90
4910;DHT22;2470;49.868;8.660;2022-11-20T16:31:24;7.60;99.90
4910;DHT22;2470;49.868;8.660;2022-11-20T16:33:55;7.60;99.90
4910;DHT22;2470;49.868;8.660;2022-11-20T16:36:22;7.60;99.90
4910;DHT22;2470;49.868;8.660;2022-11-20T16:38:52;7.60;99.90
4910;DHT22;2470;49.868;8.660;2022-11-20T16:41:18;7.60;99.90
4910;DHT22;2470;49.868;8.660;2022-11-20T16:43:52;7.70;99.90
4910;DHT22;2470;49.868;8.660;2022-11-20T16:46:20;7.70;99.90
4910;DHT22;2470;49.868;8.660;2022-11-20T16:48:58;7.70;99.90
4910;DHT22;2470;49.868;8.660;2022-11-20T16:51:25;7.60;99.90
4910;DHT22;2470;49.868;8.660;2022-11-20T16:53:52;7.70;99.90
4910;DHT22;2470;49.868;8.660;2022-11-20T16:56:21;7.70;99.90
4910;DHT22;2470;49.868;8.660;2022-11-20T16:58:48;7.70;99.90
4910;DHT22;2470;49.868;8.660;2022-11-20T17:01:16;7.70;99.90
4910;DHT22;2470;49.868;8.660;2022-11-20T17:03:43;7.70;99.90
4910;DHT22;2470;49.868;8.660;2022-11-20T17:06:15;7.70;99.90
4910;DHT22;2470;49.868;8.660;2022-11-20T17:08:45;7.80;99.90
4910;DHT22;2470;49.868;8.660;2022-11-20T17:11:14;7.80;99.90
4910;DHT22;2470;49.868;8.660;2022-11-20T17:13:39;7.70;99.90
4910;DHT22;2470;49.868;8.660;2022-11-20T17:16:07;7.70;99.90
4910;DHT22;2470;49.868;8.660;2022-11-20T17:18:34;7.70;99.90
4910;DHT22;2470;49.868;8.660;2022-11-20T17:21:00;7.70;99.90
4910;DHT22;2470;49.868;8.660;2022-11-20T17:23:39;7.70;99.90
4910;DHT22;2470;49.868;8.660;2022-11-20T17:28:37;7.70;99.90
4910;DHT22;2470;49.868;8.660;2022-11-20T17:31:08;7.70;99.90
4910;DHT22;2470;49.868;8.660;2022-11-20T17:33:36;7.70;99.90
4910;DHT22;2470;49.868;8.660;2022-11-20T17:36:03;7.70;99.90
4910;DHT22;2470;49.868;8.660;2022-11-20T17:38:29;7.70;99.90